Terminal Aerodrome Forecast
Issued by NWS

Current Version | Previous Version | Text Only | Print | Product List | Glossary On
Versions: 1 2 3 4 5 6 7 8 9 10 11 12 13 14
000
FTUS44 KBMX 270540
TAFANB
TAF
KANB 270540Z 2706/2806 07004KT P6SM SCT120 SCT250
     FM271500 09006KT P6SM OVC100 PROB30 2716/2718 4SM SHRA OVC040
     FM271800 09007KT 5SM SHRA BR BKN025 OVC050
     FM272100 10006KT P6SM VCSH BKN020 OVC040
     FM280300 13005KT 4SM BR BKN010=

USA.gov is the U.S. government's official web portal to all federal, state and local government web resources and services.